sensor_id;sensor_type;location;lat;lon;timestamp;temperature;humidity
20706;DHT22;10514;49.468;11.044;2024-03-22T00:01:52;7.60;95.50
20706;DHT22;10514;49.468;11.044;2024-03-22T00:04:18;7.50;95.50
20706;DHT22;10514;49.468;11.044;2024-03-22T00:06:45;7.50;95.40
20706;DHT22;10514;49.468;11.044;2024-03-22T00:09:11;7.50;95.40
20706;DHT22;10514;49.468;11.044;2024-03-22T00:11:38;7.50;95.30
20706;DHT22;10514;49.468;11.044;2024-03-22T00:14:04;7.50;95.20
20706;DHT22;10514;49.468;11.044;2024-03-22T00:16:30;7.50;95.10
20706;DHT22;10514;49.468;11.044;2024-03-22T00:18:55;7.40;95.20
20706;DHT22;10514;49.468;11.044;2024-03-22T00:21:22;7.40;95.30
20706;DHT22;10514;49.468;11.044;2024-03-22T00:23:47;7.40;95.30
20706;DHT22;10514;49.468;11.044;2024-03-22T00:26:13;7.30;95.20
20706;DHT22;10514;49.468;11.044;2024-03-22T00:28:38;7.30;95.20
20706;DHT22;10514;49.468;11.044;2024-03-22T00:31:04;7.20;94.90
20706;DHT22;10514;49.468;11.044;2024-03-22T00:33:29;7.20;95.10
20706;DHT22;10514;49.468;11.044;2024-03-22T00:35:55;7.10;95.20
20706;DHT22;10514;49.468;11.044;2024-03-22T00:38:21;7.10;95.30
20706;DHT22;10514;49.468;11.044;2024-03-22T00:40:46;7.00;95.00
20706;DHT22;10514;49.468;11.044;2024-03-22T00:43:12;7.00;95.40
20706;DHT22;10514;49.468;11.044;2024-03-22T00:45:37;6.90;95.40
20706;DHT22;10514;49.468;11.044;2024-03-22T00:48:03;7.00;95.40
20706;DHT22;10514;49.468;11.044;2024-03-22T00:50:28;6.90;95.60
20706;DHT22;10514;49.468;11.044;2024-03-22T00:52:54;6.90;95.40
20706;DHT22;10514;49.468;11.044;2024-03-22T00:55:23;6.90;95.50
20706;DHT22;10514;49.468;11.044;2024-03-22T00:57:49;6.80;95.80
20706;DHT22;10514;49.468;11.044;2024-03-22T01:00:15;6.60;95.90
20706;DHT22;10514;49.468;11.044;2024-03-22T01:02:41;6.80;96.20
20706;DHT22;10514;49.468;11.044;2024-03-22T01:05:07;6.90;96.10
20706;DHT22;10514;49.468;11.044;2024-03-22T01:07:32;6.80;96.00
20706;DHT22;10514;49.468;11.044;2024-03-22T01:09:58;6.70;96.10
20706;DHT22;10514;49.468;11.044;2024-03-22T01:12:23;6.70;96.10
20706;DHT22;10514;49.468;11.044;2024-03-22T01:14:49;6.70;95.90
20706;DHT22;10514;49.468;11.044;2024-03-22T01:17:14;6.60;95.90
20706;DHT22;10514;49.468;11.044;2024-03-22T01:19:40;6.60;96.00
20706;DHT22;10514;49.468;11.044;2024-03-22T01:22:05;6.60;96.10
20706;DHT22;10514;49.468;11.044;2024-03-22T01:24:31;6.60;96.10
20706;DHT22;10514;49.468;11.044;2024-03-22T01:26:56;6.50;95.90
20706;DHT22;10514;49.468;11.044;2024-03-22T01:29:22;6.50;96.20
20706;DHT22;10514;49.468;11.044;2024-03-22T01:31:48;6.40;96.10
20706;DHT22;10514;49.468;11.044;2024-03-22T01:34:13;6.40;96.20
20706;DHT22;10514;49.468;11.044;2024-03-22T01:36:40;6.40;95.90
20706;DHT22;10514;49.468;11.044;2024-03-22T01:39:05;6.30;95.90
20706;DHT22;10514;49.468;11.044;2024-03-22T01:41:31;6.30;96.00
20706;DHT22;10514;49.468;11.044;2024-03-22T01:43:58;6.30;95.90
20706;DHT22;10514;49.468;11.044;2024-03-22T01:46:24;6.30;95.70
20706;DHT22;10514;49.468;11.044;2024-03-22T01:48:50;6.20;95.70
20706;DHT22;10514;49.468;11.044;2024-03-22T01:51:16;6.10;95.60
20706;DHT22;10514;49.468;11.044;2024-03-22T01:53:42;6.10;95.60
20706;DHT22;10514;49.468;11.044;2024-03-22T01:56:07;6.10;95.60
20706;DHT22;10514;49.468;11.044;2024-03-22T01:58:33;6.00;95.60
20706;DHT22;10514;49.468;11.044;2024-03-22T02:00:59;6.00;95.80
20706;DHT22;10514;49.468;11.044;2024-03-22T02:03:24;5.90;95.50
20706;DHT22;10514;49.468;11.044;2024-03-22T02:05:50;5.90;95.60
20706;DHT22;10514;49.468;11.044;2024-03-22T02:08:15;5.80;95.90
20706;DHT22;10514;49.468;11.044;2024-03-22T02:10:41;5.80;95.90
20706;DHT22;10514;49.468;11.044;2024-03-22T02:13:06;5.80;96.00
20706;DHT22;10514;49.468;11.044;2024-03-22T02:15:32;5.80;96.00
20706;DHT22;10514;49.468;11.044;2024-03-22T02:17:58;5.70;95.90
20706;DHT22;10514;49.468;11.044;2024-03-22T02:20:23;5.70;96.10
20706;DHT22;10514;49.468;11.044;2024-03-22T02:22:49;5.70;96.70
20706;DHT22;10514;49.468;11.044;2024-03-22T02:25:14;5.70;96.60
20706;DHT22;10514;49.468;11.044;2024-03-22T02:27:41;5.80;97.00
20706;DHT22;10514;49.468;11.044;2024-03-22T02:30:07;5.80;97.10
20706;DHT22;10514;49.468;11.044;2024-03-22T02:32:33;5.80;97.30
20706;DHT22;10514;49.468;11.044;2024-03-22T02:34:58;5.80;97.30
20706;DHT22;10514;49.468;11.044;2024-03-22T02:37:24;5.80;97.10
20706;DHT22;10514;49.468;11.044;2024-03-22T02:39:49;5.70;97.00
20706;DHT22;10514;49.468;11.044;2024-03-22T02:42:15;5.70;97.50
20706;DHT22;10514;49.468;11.044;2024-03-22T02:44:40;5.70;97.30
20706;DHT22;10514;49.468;11.044;2024-03-22T02:47:11;5.70;97.40
20706;DHT22;10514;49.468;11.044;2024-03-22T02:49:40;5.70;97.30
20706;DHT22;10514;49.468;11.044;2024-03-22T02:55:28;5.60;97.00
20706;DHT22;10514;49.468;11.044;2024-03-22T02:57:53;5.60;97.00
20706;DHT22;10514;49.468;11.044;2024-03-22T03:00:19;5.50;96.90
20706;DHT22;10514;49.468;11.044;2024-03-22T03:02:47;5.50;96.70
20706;DHT22;10514;49.468;11.044;2024-03-22T03:05:13;5.40;96.50
20706;DHT22;10514;49.468;11.044;2024-03-22T03:07:38;5.40;96.60
20706;DHT22;10514;49.468;11.044;2024-03-22T03:10:04;5.40;96.40
20706;DHT22;10514;49.468;11.044;2024-03-22T03:12:30;5.30;96.40
20706;DHT22;10514;49.468;11.044;2024-03-22T03:14:55;5.30;96.40
20706;DHT22;10514;49.468;11.044;2024-03-22T03:17:21;5.20;96.40
20706;DHT22;10514;49.468;11.044;2024-03-22T03:19:46;5.20;96.40
20706;DHT22;10514;49.468;11.044;2024-03-22T03:22:12;5.20;96.50
20706;DHT22;10514;49.468;11.044;2024-03-22T03:24:37;5.20;96.50
20706;DHT22;10514;49.468;11.044;2024-03-22T03:27:06;5.20;96.40
20706;DHT22;10514;49.468;11.044;2024-03-22T03:29:31;5.10;96.40
20706;DHT22;10514;49.468;11.044;2024-03-22T03:31:57;5.10;96.20
20706;DHT22;10514;49.468;11.044;2024-03-22T03:34:22;5.00;96.20
20706;DHT22;10514;49.468;11.044;2024-03-22T03:36:48;5.10;96.30
20706;DHT22;10514;49.468;11.044;2024-03-22T03:39:13;5.00;96.20
20706;DHT22;10514;49.468;11.044;2024-03-22T03:41:39;5.00;96.20
20706;DHT22;10514;49.468;11.044;2024-03-22T03:44:04;5.00;96.30
20706;DHT22;10514;49.468;11.044;2024-03-22T03:46:30;5.00;96.10
20706;DHT22;10514;49.468;11.044;2024-03-22T03:48:55;4.90;96.20
20706;DHT22;10514;49.468;11.044;2024-03-22T03:51:21;4.90;96.70
20706;DHT22;10514;49.468;11.044;2024-03-22T03:53:46;5.00;97.40
20706;DHT22;10514;49.468;11.044;2024-03-22T03:56:11;4.90;97.50
20706;DHT22;10514;49.468;11.044;2024-03-22T03:58:37;4.90;97.70
20706;DHT22;10514;49.468;11.044;2024-03-22T04:01:06;5.00;98.00
20706;DHT22;10514;49.468;11.044;2024-03-22T04:03:32;5.00;98.20
20706;DHT22;10514;49.468;11.044;2024-03-22T04:05:58;5.10;98.20
20706;DHT22;10514;49.468;11.044;2024-03-22T04:08:27;5.10;98.20
20706;DHT22;10514;49.468;11.044;2024-03-22T04:10:53;5.10;98.00
20706;DHT22;10514;49.468;11.044;2024-03-22T04:13:22;5.10;98.20
20706;DHT22;10514;49.468;11.044;2024-03-22T04:15:47;5.10;98.20
20706;DHT22;10514;49.468;11.044;2024-03-22T04:18:13;5.10;98.10
20706;DHT22;10514;49.468;11.044;2024-03-22T04:20:38;5.10;98.00
20706;DHT22;10514;49.468;11.044;2024-03-22T04:23:04;5.10;97.90
20706;DHT22;10514;49.468;11.044;2024-03-22T04:25:29;5.10;97.90
20706;DHT22;10514;49.468;11.044;2024-03-22T04:27:55;5.10;97.80
20706;DHT22;10514;49.468;11.044;2024-03-22T04:30:20;5.10;97.50
20706;DHT22;10514;49.468;11.044;2024-03-22T04:32:46;5.00;97.70
20706;DHT22;10514;49.468;11.044;2024-03-22T04:35:12;4.90;97.40
20706;DHT22;10514;49.468;11.044;2024-03-22T04:37:37;4.90;97.40
20706;DHT22;10514;49.468;11.044;2024-03-22T04:40:03;4.90;97.40
20706;DHT22;10514;49.468;11.044;2024-03-22T04:42:29;4.90;97.30
20706;DHT22;10514;49.468;11.044;2024-03-22T04:44:54;5.50;97.60
20706;DHT22;10514;49.468;11.044;2024-03-22T04:47:20;4.80;97.40
20706;DHT22;10514;49.468;11.044;2024-03-22T04:49:46;4.80;97.30
20706;DHT22;10514;49.468;11.044;2024-03-22T04:52:11;4.80;97.30
20706;DHT22;10514;49.468;11.044;2024-03-22T04:54:37;4.80;97.40
20706;DHT22;10514;49.468;11.044;2024-03-22T04:57:02;4.80;97.40
20706;DHT22;10514;49.468;11.044;2024-03-22T04:59:28;4.80;97.40
20706;DHT22;10514;49.468;11.044;2024-03-22T05:01:53;4.70;97.40
20706;DHT22;10514;49.468;11.044;2024-03-22T05:04:19;4.70;97.30
20706;DHT22;10514;49.468;11.044;2024-03-22T05:06:44;4.70;97.20
20706;DHT22;10514;49.468;11.044;2024-03-22T05:09:10;4.70;97.10
20706;DHT22;10514;49.468;11.044;2024-03-22T05:11:35;4.60;97.10
20706;DHT22;10514;49.468;11.044;2024-03-22T05:14:01;4.60;97.00
20706;DHT22;10514;49.468;11.044;2024-03-22T05:16:26;4.60;96.90
20706;DHT22;10514;49.468;11.044;2024-03-22T05:18:52;4.60;96.80
20706;DHT22;10514;49.468;11.044;2024-03-22T05:21:17;4.50;96.80
20706;DHT22;10514;49.468;11.044;2024-03-22T05:23:43;4.50;96.90
20706;DHT22;10514;49.468;11.044;2024-03-22T05:26:08;4.50;96.90
20706;DHT22;10514;49.468;11.044;2024-03-22T05:28:34;4.50;96.90
20706;DHT22;10514;49.468;11.044;2024-03-22T05:30:59;4.40;96.90
20706;DHT22;10514;49.468;11.044;2024-03-22T05:33:25;4.50;97.00
20706;DHT22;10514;49.468;11.044;2024-03-22T05:35:50;4.50;97.10
20706;DHT22;10514;49.468;11.044;2024-03-22T05:38:16;4.50;96.90
20706;DHT22;10514;49.468;11.044;2024-03-22T05:40:41;4.50;97.40
20706;DHT22;10514;49.468;11.044;2024-03-22T05:43:07;4.60;98.00
20706;DHT22;10514;49.468;11.044;2024-03-22T05:45:32;4.60;98.40
20706;DHT22;10514;49.468;11.044;2024-03-22T05:47:58;4.70;98.10
20706;DHT22;10514;49.468;11.044;2024-03-22T05:50:23;4.80;98.50
20706;DHT22;10514;49.468;11.044;2024-03-22T05:52:49;4.90;98.50
20706;DHT22;10514;49.468;11.044;2024-03-22T05:55:14;5.00;98.70
20706;DHT22;10514;49.468;11.044;2024-03-22T05:57:40;5.10;98.60
20706;DHT22;10514;49.468;11.044;2024-03-22T06:00:05;5.20;98.50
20706;DHT22;10514;49.468;11.044;2024-03-22T06:02:34;5.20;98.30
20706;DHT22;10514;49.468;11.044;2024-03-22T06:04:59;5.40;98.40
20706;DHT22;10514;49.468;11.044;2024-03-22T06:07:25;5.40;97.90
20706;DHT22;10514;49.468;11.044;2024-03-22T06:09:51;5.50;98.30
20706;DHT22;10514;49.468;11.044;2024-03-22T06:12:17;5.50;98.10
20706;DHT22;10514;49.468;11.044;2024-03-22T06:14:43;5.60;98.20
20706;DHT22;10514;49.468;11.044;2024-03-22T06:17:09;5.70;98.10
20706;DHT22;10514;49.468;11.044;2024-03-22T06:19:35;5.80;98.00
20706;DHT22;10514;49.468;11.044;2024-03-22T06:22:01;5.90;97.70
20706;DHT22;10514;49.468;11.044;2024-03-22T06:24:28;6.00;97.50
20706;DHT22;10514;49.468;11.044;2024-03-22T06:26:53;6.00;97.50
20706;DHT22;10514;49.468;11.044;2024-03-22T06:29:19;6.20;97.40
20706;DHT22;10514;49.468;11.044;2024-03-22T06:31:44;6.30;97.40
20706;DHT22;10514;49.468;11.044;2024-03-22T06:34:10;6.50;97.10
20706;DHT22;10514;49.468;11.044;2024-03-22T06:36:35;6.60;96.60
20706;DHT22;10514;49.468;11.044;2024-03-22T06:39:01;6.80;95.20
20706;DHT22;10514;49.468;11.044;2024-03-22T06:41:28;6.80;94.20
20706;DHT22;10514;49.468;11.044;2024-03-22T06:43:54;6.90;93.80
20706;DHT22;10514;49.468;11.044;2024-03-22T06:46:19;7.10;93.40
20706;DHT22;10514;49.468;11.044;2024-03-22T06:48:45;7.20;93.10
20706;DHT22;10514;49.468;11.044;2024-03-22T06:51:12;7.30;93.30
20706;DHT22;10514;49.468;11.044;2024-03-22T06:53:37;7.50;93.60
20706;DHT22;10514;49.468;11.044;2024-03-22T06:56:03;7.50;92.60
20706;DHT22;10514;49.468;11.044;2024-03-22T06:58:29;7.60;92.40
20706;DHT22;10514;49.468;11.044;2024-03-22T07:00:55;7.70;91.60
20706;DHT22;10514;49.468;11.044;2024-03-22T07:03:20;7.80;91.80
20706;DHT22;10514;49.468;11.044;2024-03-22T07:05:47;7.90;91.60
20706;DHT22;10514;49.468;11.044;2024-03-22T07:08:13;8.00;91.90
20706;DHT22;10514;49.468;11.044;2024-03-22T07:10:39;8.10;91.60
20706;DHT22;10514;49.468;11.044;2024-03-22T07:13:05;8.10;91.00
20706;DHT22;10514;49.468;11.044;2024-03-22T07:15:31;8.20;90.90
20706;DHT22;10514;49.468;11.044;2024-03-22T07:17:58;8.20;90.60
20706;DHT22;10514;49.468;11.044;2024-03-22T07:20:24;8.20;90.40
20706;DHT22;10514;49.468;11.044;2024-03-22T07:22:49;8.20;89.50
20706;DHT22;10514;49.468;11.044;2024-03-22T07:25:15;8.10;89.30
20706;DHT22;10514;49.468;11.044;2024-03-22T07:27:40;8.10;88.80
20706;DHT22;10514;49.468;11.044;2024-03-22T07:30:06;8.00;88.50
20706;DHT22;10514;49.468;11.044;2024-03-22T07:32:32;8.10;90.20
20706;DHT22;10514;49.468;11.044;2024-03-22T07:34:58;8.10;89.60
20706;DHT22;10514;49.468;11.044;2024-03-22T07:37:24;8.20;89.30
20706;DHT22;10514;49.468;11.044;2024-03-22T07:39:50;8.30;87.40
20706;DHT22;10514;49.468;11.044;2024-03-22T07:42:15;8.30;88.40
20706;DHT22;10514;49.468;11.044;2024-03-22T07:44:41;8.30;87.80
20706;DHT22;10514;49.468;11.044;2024-03-22T07:47:07;8.40;88.20
20706;DHT22;10514;49.468;11.044;2024-03-22T07:49:32;8.40;88.90
20706;DHT22;10514;49.468;11.044;2024-03-22T07:52:00;8.60;89.40
20706;DHT22;10514;49.468;11.044;2024-03-22T07:54:25;8.70;89.00
20706;DHT22;10514;49.468;11.044;2024-03-22T07:56:51;8.90;87.50
20706;DHT22;10514;49.468;11.044;2024-03-22T07:59:16;8.90;86.00
20706;DHT22;10514;49.468;11.044;2024-03-22T08:01:42;9.10;86.80
20706;DHT22;10514;49.468;11.044;2024-03-22T08:04:08;9.20;84.00
20706;DHT22;10514;49.468;11.044;2024-03-22T08:06:33;9.30;84.30
20706;DHT22;10514;49.468;11.044;2024-03-22T08:08:59;9.40;84.50
20706;DHT22;10514;49.468;11.044;2024-03-22T08:11:26;9.50;83.80
20706;DHT22;10514;49.468;11.044;2024-03-22T08:13:52;9.70;84.00
20706;DHT22;10514;49.468;11.044;2024-03-22T08:16:17;9.80;81.20
20706;DHT22;10514;49.468;11.044;2024-03-22T08:18:43;9.80;81.30
20706;DHT22;10514;49.468;11.044;2024-03-22T08:21:08;9.90;81.00
20706;DHT22;10514;49.468;11.044;2024-03-22T08:23:34;10.00;80.60
20706;DHT22;10514;49.468;11.044;2024-03-22T08:25:59;10.20;80.40
20706;DHT22;10514;49.468;11.044;2024-03-22T08:28:25;10.40;80.10
20706;DHT22;10514;49.468;11.044;2024-03-22T08:30:50;10.50;79.20
20706;DHT22;10514;49.468;11.044;2024-03-22T08:33:17;10.70;79.50
20706;DHT22;10514;49.468;11.044;2024-03-22T08:35:43;10.90;78.60
20706;DHT22;10514;49.468;11.044;2024-03-22T08:38:08;11.10;78.00
20706;DHT22;10514;49.468;11.044;2024-03-22T08:40:37;11.30;76.30
20706;DHT22;10514;49.468;11.044;2024-03-22T08:43:02;11.60;76.50
20706;DHT22;10514;49.468;11.044;2024-03-22T08:45:28;11.90;75.20
20706;DHT22;10514;49.468;11.044;2024-03-22T08:47:54;12.30;73.90
20706;DHT22;10514;49.468;11.044;2024-03-22T08:50:19;13.10;71.60
20706;DHT22;10514;49.468;11.044;2024-03-22T08:52:45;13.60;69.60
20706;DHT22;10514;49.468;11.044;2024-03-22T08:55:11;14.30;67.00
20706;DHT22;10514;49.468;11.044;2024-03-22T08:57:37;14.70;63.40
20706;DHT22;10514;49.468;11.044;2024-03-22T09:00:02;15.40;62.30
20706;DHT22;10514;49.468;11.044;2024-03-22T09:02:28;16.00;61.10
20706;DHT22;10514;49.468;11.044;2024-03-22T09:04:53;16.80;58.20
20706;DHT22;10514;49.468;11.044;2024-03-22T09:07:19;17.60;56.40
20706;DHT22;10514;49.468;11.044;2024-03-22T09:09:45;18.60;54.00
20706;DHT22;10514;49.468;11.044;2024-03-22T09:12:11;18.90;51.60
20706;DHT22;10514;49.468;11.044;2024-03-22T09:14:36;18.90;51.40
20706;DHT22;10514;49.468;11.044;2024-03-22T09:17:02;18.90;51.60
20706;DHT22;10514;49.468;11.044;2024-03-22T09:19:28;18.90;51.40
20706;DHT22;10514;49.468;11.044;2024-03-22T09:21:53;19.20;52.00
20706;DHT22;10514;49.468;11.044;2024-03-22T09:24:19;19.60;50.10
20706;DHT22;10514;49.468;11.044;2024-03-22T09:26:45;20.30;49.40
20706;DHT22;10514;49.468;11.044;2024-03-22T09:29:12;21.00;47.40
20706;DHT22;10514;49.468;11.044;2024-03-22T09:31:38;21.00;46.40
20706;DHT22;10514;49.468;11.044;2024-03-22T09:34:03;21.30;45.90
20706;DHT22;10514;49.468;11.044;2024-03-22T09:36:29;21.40;46.40
20706;DHT22;10514;49.468;11.044;2024-03-22T09:38:59;21.60;45.40
20706;DHT22;10514;49.468;11.044;2024-03-22T09:41:25;22.10;45.10
20706;DHT22;10514;49.468;11.044;2024-03-22T09:43:58;22.50;45.20
20706;DHT22;10514;49.468;11.044;2024-03-22T09:46:24;23.00;43.20
20706;DHT22;10514;49.468;11.044;2024-03-22T09:48:50;22.80;42.80
20706;DHT22;10514;49.468;11.044;2024-03-22T09:51:17;22.90;43.30
20706;DHT22;10514;49.468;11.044;2024-03-22T09:53:44;22.70;42.70
20706;DHT22;10514;49.468;11.044;2024-03-22T09:56:14;22.70;42.90
20706;DHT22;10514;49.468;11.044;2024-03-22T09:58:41;22.80;43.20
20706;DHT22;10514;49.468;11.044;2024-03-22T10:01:07;23.10;43.10
20706;DHT22;10514;49.468;11.044;2024-03-22T10:03:33;22.80;42.20
20706;DHT22;10514;49.468;11.044;2024-03-22T10:05:58;22.60;43.60
20706;DHT22;10514;49.468;11.044;2024-03-22T10:08:24;22.30;43.10
20706;DHT22;10514;49.468;11.044;2024-03-22T10:10:50;22.10;44.30
20706;DHT22;10514;49.468;11.044;2024-03-22T10:13:15;22.10;45.40
20706;DHT22;10514;49.468;11.044;2024-03-22T10:15:41;22.30;44.90
20706;DHT22;10514;49.468;11.044;2024-03-22T10:18:07;22.30;44.40
20706;DHT22;10514;49.468;11.044;2024-03-22T10:20:34;22.40;44.60
20706;DHT22;10514;49.468;11.044;2024-03-22T10:22:59;22.60;45.30
20706;DHT22;10514;49.468;11.044;2024-03-22T10:25:29;22.80;44.50
20706;DHT22;10514;49.468;11.044;2024-03-22T10:27:55;22.90;44.20
20706;DHT22;10514;49.468;11.044;2024-03-22T10:30:22;23.30;43.10
20706;DHT22;10514;49.468;11.044;2024-03-22T10:32:48;23.50;42.40
20706;DHT22;10514;49.468;11.044;2024-03-22T10:35:15;23.70;39.00
20706;DHT22;10514;49.468;11.044;2024-03-22T10:37:41;23.80;39.60
20706;DHT22;10514;49.468;11.044;2024-03-22T10:40:07;23.50;40.20
20706;DHT22;10514;49.468;11.044;2024-03-22T10:42:37;23.50;40.20
20706;DHT22;10514;49.468;11.044;2024-03-22T10:45:05;23.50;40.00
20706;DHT22;10514;49.468;11.044;2024-03-22T10:47:32;23.20;41.70
20706;DHT22;10514;49.468;11.044;2024-03-22T10:50:05;22.90;42.00
20706;DHT22;10514;49.468;11.044;2024-03-22T10:52:46;23.20;42.20
20706;DHT22;10514;49.468;11.044;2024-03-22T10:55:18;23.20;41.90
20706;DHT22;10514;49.468;11.044;2024-03-22T10:57:45;23.10;41.80
20706;DHT22;10514;49.468;11.044;2024-03-22T11:00:11;22.80;41.10
20706;DHT22;10514;49.468;11.044;2024-03-22T11:02:37;22.90;41.00
20706;DHT22;10514;49.468;11.044;2024-03-22T11:05:04;22.50;41.40
20706;DHT22;10514;49.468;11.044;2024-03-22T11:07:31;22.30;41.60
20706;DHT22;10514;49.468;11.044;2024-03-22T11:09:58;21.90;41.20
20706;DHT22;10514;49.468;11.044;2024-03-22T11:12:24;21.60;42.10
20706;DHT22;10514;49.468;11.044;2024-03-22T11:14:52;21.30;41.70
20706;DHT22;10514;49.468;11.044;2024-03-22T11:17:18;21.00;43.60
20706;DHT22;10514;49.468;11.044;2024-03-22T11:19:43;20.80;42.80
20706;DHT22;10514;49.468;11.044;2024-03-22T11:22:09;20.70;45.50
20706;DHT22;10514;49.468;11.044;2024-03-22T11:24:37;20.70;46.30
20706;DHT22;10514;49.468;11.044;2024-03-22T11:27:03;20.30;44.00
20706;DHT22;10514;49.468;11.044;2024-03-22T11:29:29;20.40;44.00
20706;DHT22;10514;49.468;11.044;2024-03-22T11:31:54;20.50;44.80
20706;DHT22;10514;49.468;11.044;2024-03-22T11:34:20;20.70;43.70
20706;DHT22;10514;49.468;11.044;2024-03-22T11:36:45;20.70;43.90
20706;DHT22;10514;49.468;11.044;2024-03-22T11:39:11;20.80;44.10
20706;DHT22;10514;49.468;11.044;2024-03-22T11:41:37;21.00;44.70
20706;DHT22;10514;49.468;11.044;2024-03-22T11:44:02;21.00;44.10
20706;DHT22;10514;49.468;11.044;2024-03-22T11:46:28;21.00;43.20
20706;DHT22;10514;49.468;11.044;2024-03-22T11:48:55;20.90;43.60
20706;DHT22;10514;49.468;11.044;2024-03-22T11:51:21;20.60;42.40
20706;DHT22;10514;49.468;11.044;2024-03-22T11:53:50;20.50;42.80
20706;DHT22;10514;49.468;11.044;2024-03-22T11:56:18;20.50;43.10
20706;DHT22;10514;49.468;11.044;2024-03-22T11:58:46;20.40;42.90
20706;DHT22;10514;49.468;11.044;2024-03-22T12:01:13;20.20;43.00
20706;DHT22;10514;49.468;11.044;2024-03-22T12:03:39;20.00;44.00
20706;DHT22;10514;49.468;11.044;2024-03-22T12:06:06;20.00;44.20
20706;DHT22;10514;49.468;11.044;2024-03-22T12:08:31;20.00;44.30
20706;DHT22;10514;49.468;11.044;2024-03-22T12:10:57;20.20;44.70
20706;DHT22;10514;49.468;11.044;2024-03-22T12:13:22;20.20;44.90
20706;DHT22;10514;49.468;11.044;2024-03-22T12:15:48;20.20;45.80
20706;DHT22;10514;49.468;11.044;2024-03-22T12:18:13;20.20;46.10
20706;DHT22;10514;49.468;11.044;2024-03-22T12:20:39;20.20;46.00
20706;DHT22;10514;49.468;11.044;2024-03-22T12:23:04;20.00;46.10
20706;DHT22;10514;49.468;11.044;2024-03-22T12:25:30;19.90;46.80
20706;DHT22;10514;49.468;11.044;2024-03-22T12:27:55;19.70;46.90
20706;DHT22;10514;49.468;11.044;2024-03-22T12:30:21;19.70;47.50
20706;DHT22;10514;49.468;11.044;2024-03-22T12:32:47;19.60;48.40
20706;DHT22;10514;49.468;11.044;2024-03-22T12:35:13;19.70;47.80
20706;DHT22;10514;49.468;11.044;2024-03-22T12:37:38;19.50;46.90
20706;DHT22;10514;49.468;11.044;2024-03-22T12:40:05;19.70;48.30
20706;DHT22;10514;49.468;11.044;2024-03-22T12:42:33;19.90;47.70
20706;DHT22;10514;49.468;11.044;2024-03-22T12:44:59;19.90;47.30
20706;DHT22;10514;49.468;11.044;2024-03-22T12:47:24;19.90;47.20
20706;DHT22;10514;49.468;11.044;2024-03-22T12:49:50;19.90;47.40
20706;DHT22;10514;49.468;11.044;2024-03-22T12:52:16;19.90;47.40
20706;DHT22;10514;49.468;11.044;2024-03-22T12:54:42;19.90;47.80
20706;DHT22;10514;49.468;11.044;2024-03-22T12:57:07;19.80;45.80
20706;DHT22;10514;49.468;11.044;2024-03-22T12:59:33;19.80;46.60
20706;DHT22;10514;49.468;11.044;2024-03-22T13:02:00;19.80;45.60
20706;DHT22;10514;49.468;11.044;2024-03-22T13:04:26;19.70;44.60
20706;DHT22;10514;49.468;11.044;2024-03-22T13:06:52;19.80;45.20
20706;DHT22;10514;49.468;11.044;2024-03-22T13:09:18;19.80;45.50
20706;DHT22;10514;49.468;11.044;2024-03-22T13:11:47;19.80;45.60
20706;DHT22;10514;49.468;11.044;2024-03-22T13:14:13;20.00;45.00
20706;DHT22;10514;49.468;11.044;2024-03-22T13:16:41;20.00;45.00
20706;DHT22;10514;49.468;11.044;2024-03-22T13:19:06;20.10;46.20
20706;DHT22;10514;49.468;11.044;2024-03-22T13:21:37;20.00;47.40
20706;DHT22;10514;49.468;11.044;2024-03-22T13:24:03;19.90;45.80
20706;DHT22;10514;49.468;11.044;2024-03-22T13:26:28;19.80;46.50
20706;DHT22;10514;49.468;11.044;2024-03-22T13:28:54;19.60;46.90
20706;DHT22;10514;49.468;11.044;2024-03-22T13:31:19;19.50;47.30
20706;DHT22;10514;49.468;11.044;2024-03-22T13:33:45;19.40;46.70
20706;DHT22;10514;49.468;11.044;2024-03-22T13:36:10;19.40;48.30
20706;DHT22;10514;49.468;11.044;2024-03-22T13:38:36;19.40;47.70
20706;DHT22;10514;49.468;11.044;2024-03-22T13:41:02;19.20;47.70
20706;DHT22;10514;49.468;11.044;2024-03-22T13:43:29;19.10;48.10
20706;DHT22;10514;49.468;11.044;2024-03-22T13:45:55;19.10;47.80
20706;DHT22;10514;49.468;11.044;2024-03-22T13:48:21;19.00;46.70
20706;DHT22;10514;49.468;11.044;2024-03-22T13:50:54;19.00;48.00
20706;DHT22;10514;49.468;11.044;2024-03-22T13:53:20;19.00;45.30
20706;DHT22;10514;49.468;11.044;2024-03-22T13:55:49;19.00;44.90
20706;DHT22;10514;49.468;11.044;2024-03-22T13:58:16;19.00;45.90
20706;DHT22;10514;49.468;11.044;2024-03-22T14:00:42;19.10;45.30
20706;DHT22;10514;49.468;11.044;2024-03-22T14:03:07;19.10;45.30
20706;DHT22;10514;49.468;11.044;2024-03-22T14:05:34;19.20;45.70
20706;DHT22;10514;49.468;11.044;2024-03-22T14:08:00;19.20;45.20
20706;DHT22;10514;49.468;11.044;2024-03-22T14:10:25;19.20;45.30
20706;DHT22;10514;49.468;11.044;2024-03-22T14:12:56;19.20;45.20
20706;DHT22;10514;49.468;11.044;2024-03-22T14:15:22;19.10;45.00
20706;DHT22;10514;49.468;11.044;2024-03-22T14:17:50;19.10;45.90
20706;DHT22;10514;49.468;11.044;2024-03-22T14:20:16;19.10;46.40
20706;DHT22;10514;49.468;11.044;2024-03-22T14:22:42;19.10;46.30
20706;DHT22;10514;49.468;11.044;2024-03-22T14:25:08;20.00;46.40
20706;DHT22;10514;49.468;11.044;2024-03-22T14:27:38;19.00;45.70
20706;DHT22;10514;49.468;11.044;2024-03-22T14:30:05;18.90;45.00
20706;DHT22;10514;49.468;11.044;2024-03-22T14:32:34;18.90;45.70
20706;DHT22;10514;49.468;11.044;2024-03-22T14:35:00;18.90;45.90
20706;DHT22;10514;49.468;11.044;2024-03-22T14:37:26;18.90;45.20
20706;DHT22;10514;49.468;11.044;2024-03-22T14:39:51;18.90;45.40
20706;DHT22;10514;49.468;11.044;2024-03-22T14:42:17;18.70;44.50
20706;DHT22;10514;49.468;11.044;2024-03-22T14:44:42;18.80;45.10
20706;DHT22;10514;49.468;11.044;2024-03-22T14:47:10;18.80;45.20
20706;DHT22;10514;49.468;11.044;2024-03-22T14:49:36;18.90;45.20
20706;DHT22;10514;49.468;11.044;2024-03-22T14:52:01;18.90;45.00
20706;DHT22;10514;49.468;11.044;2024-03-22T14:54:27;18.90;44.70
20706;DHT22;10514;49.468;11.044;2024-03-22T14:56:52;18.90;44.50
20706;DHT22;10514;49.468;11.044;2024-03-22T14:59:20;18.90;45.30
20706;DHT22;10514;49.468;11.044;2024-03-22T15:01:46;18.90;43.80
20706;DHT22;10514;49.468;11.044;2024-03-22T15:04:12;18.70;43.00
20706;DHT22;10514;49.468;11.044;2024-03-22T15:06:37;18.70;44.20
20706;DHT22;10514;49.468;11.044;2024-03-22T15:09:04;18.70;44.50
20706;DHT22;10514;49.468;11.044;2024-03-22T15:11:35;18.60;44.30
20706;DHT22;10514;49.468;11.044;2024-03-22T15:14:01;18.50;44.20
20706;DHT22;10514;49.468;11.044;2024-03-22T15:16:29;18.30;44.80
20706;DHT22;10514;49.468;11.044;2024-03-22T15:18:54;18.20;44.90
20706;DHT22;10514;49.468;11.044;2024-03-22T15:21:20;18.10;45.20